Thunder Mountain, Nevada
Current Conditions -  °F | °C
As of 1:45 PM on Saturday 22 Nov 2014 (Local Time) from KWMC Reporting Station
Light Rain Light Rain  
Wind Chill: 34°   Ceiling: 3000
Heat Index: 41°   Visibility: 10mi
Dew Point: 37°   Wind: 13mph
Humidity: 86%   Direction: 280°W
Pressure: 29.92"   Gusts: NA
Location:  40.601°N, 117.984°W
Report Text: KWMC 222145Z AUTO 28011KT 10SM -RA BKN030 OVC050 05/03 A2992 RMK AO2 PK WND 32027/2111 P0006 T00500028
Loading
Personal Weather Stations






























Interactive Weather Map New forecast layout! Learn more

10-Day Weather Forecast

Advertisements
Track Severe Weather on mobile